Wiggans, Pennsylvania
Current Conditions -  °F | °C
As of 12:55 AM on Wednesday 22 Oct 2014 (Local Time) from KHZL Reporting Station
Broken Clouds Broken Clouds  
Wind Chill: 50°   Ceiling: 700
Heat Index: 50°   Visibility: 10mi
Dew Point: 46°   Wind: 5mph
Humidity: 87%   Direction: 360°N
Pressure: 29.95"   Gusts: NA
Location:  40.8128°N, 76.1382°W
Report Text: KHZL 220455Z AUTO 36004KT 10SM BKN007 BKN070 10/08 A2995 RMK AO2
Loading
Personal Weather Stations






























Interactive Weather Map
Tropical Storm Tracking
New forecast layout! Learn more

10-Day Weather Forecast

Advertisements
Track Severe Weather on mobile